Nestor — V2FB3 — position and weather

sailwx.info

Track history (hours):
 
Tides and Currents Weather Stations Pressure Air Temp Water Temp Dewpoint Dewpoint Depression Visibility Wind Speed Wind Dir Waves Ship Positions

Nestor

Last reported at 2017-Jun-23 20:21 UTC. Time now 2017-Jun-28 00:20 UTC.
Position N 50°58' W 006°20'.

Length 88 m; draft 5.9 m.

Type: Cargo ship. MMSI: 305620000.

Date/timePositionNaut miles runAvg speedWind from/ knotsBaromVisibWave heightAir tempDewpointWater temp
2017-Jun-23 20:21N 50°58' W 006°20'3 6.6
2017-Jun-23 19:55N 51°01' W 006°18'3 6.3
2017-Jun-23 19:30N 51°04' W 006°17'7 6.0
2017-Jun-23 18:22N 51°10' W 006°14'3 5.7
2017-Jun-23 17:47N 51°13' W 006°13'182 7.7
2017-Jun-22 18:02N 54°12' W 005°18'0 9.6
2017-Jun-22 18:00N 54°13' W 005°18'5 9.6
2017-Jun-22 17:31N 54°18' W 005°17'5 9.5
2017-Jun-22 17:00N 54°22' W 005°17'5 9.8
2017-Jun-22 16:30N 54°27' W 005°17'5 9.8
2017-Jun-22 16:00N 54°32' W 005°20'5 9.8
2017-Jun-22 15:30N 54°36' W 005°23'5 9.4
2017-Jun-22 15:00N 54°40' W 005°27'5 9.1
2017-Jun-22 14:30N 54°42' W 005°34'10 9.5
2017-Jun-22 13:30N 54°40' W 005°50'4 6.4
2017-Jun-22 12:57N 54°37' W 005°53'0 0.0
2017-Jun-22 12:21N 54°37' W 005°53'0 0.0
2017-Jun-22 12:00N 54°37' W 005°53'0 0.0
2017-Jun-22 11:30N 54°37' W 005°53'0 0.0
2017-Jun-22 10:57N 54°37' W 005°53'0 0.0
2017-Jun-22 10:30N 54°37' W 005°53'0 0.0
2017-Jun-22 09:54N 54°37' W 005°53'0 0.0
2017-Jun-22 09:24N 54°37' W 005°53'0 0.0
2017-Jun-22 08:51N 54°37' W 005°53'0 0.0
2017-Jun-22 08:24N 54°37' W 005°53'0 0.0
2017-Jun-22 08:00N 54°37' W 005°53'0 0.0
2017-Jun-22 07:24N 54°37' W 005°53'0 0.0
2017-Jun-22 07:00N 54°37' W 005°53'0 0.0
2017-Jun-22 06:30N 54°37' W 005°53'0 0.0
2017-Jun-22 06:00N 54°37' W 005°53'0 0.0
2017-Jun-22 05:27N 54°37' W 005°53'0 0.0
2017-Jun-22 05:00N 54°37' W 005°53'0 0.0
2017-Jun-22 04:30N 54°37' W 005°53'0 0.0
2017-Jun-22 04:00N 54°37' W 005°53'0 0.0
2017-Jun-22 03:30N 54°37' W 005°53'0 0.0
2017-Jun-22 03:00N 54°37' W 005°53'0 0.0
2017-Jun-22 02:30N 54°37' W 005°53'0 0.0
2017-Jun-22 02:00N 54°37' W 005°53'0 0.0
2017-Jun-22 01:27N 54°37' W 005°53'0 0.0
2017-Jun-22 00:57N 54°37' W 005°53'0 0.0
2017-Jun-22 00:30N 54°37' W 005°53'0 0.0
2017-Jun-21 23:57N 54°37' W 005°53'0 0.0
2017-Jun-21 23:30N 54°37' W 005°53'0 0.0
2017-Jun-21 23:00N 54°37' W 005°53'0 0.0
2017-Jun-21 22:30N 54°37' W 005°53'0 0.0
2017-Jun-21 21:57N 54°37' W 005°53'0 0.0
2017-Jun-21 21:30N 54°37' W 005°53'0 0.0
2017-Jun-21 21:00N 54°37' W 005°53'0 0.0
2017-Jun-21 20:30N 54°37' W 005°53'0 0.0
2017-Jun-21 19:51N 54°37' W 005°53'0 0.0
2017-Jun-21 19:30N 54°37' W 005°53'0 0.0
2017-Jun-21 19:00N 54°37' W 005°53'0 0.0
2017-Jun-21 18:30N 54°37' W 005°53'0 0.0
2017-Jun-21 17:57N 54°37' W 005°53'0 0.0
2017-Jun-21 17:30N 54°37' W 005°53'0 0.0
2017-Jun-21 17:00N 54°37' W 005°53'0 0.0
2017-Jun-21 16:27N 54°37' W 005°53'0 0.0
2017-Jun-21 15:57N 54°37' W 005°53'0 0.0
2017-Jun-21 15:24N 54°37' W 005°53'0 0.0
2017-Jun-21 15:00N 54°37' W 005°53'0 0.0
2017-Jun-21 14:27N 54°37' W 005°53'0 0.0
2017-Jun-21 13:30N 54°37' W 005°53'0 0.0
2017-Jun-21 13:00N 54°37' W 005°53'0 0.0
2017-Jun-21 12:30N 54°37' W 005°53'0 0.0
2017-Jun-21 11:54N 54°37' W 005°53'0 0.0
2017-Jun-21 11:30N 54°37' W 005°53'0 0.0
2017-Jun-21 10:57N 54°37' W 005°53'0 0.0
2017-Jun-21 10:27N 54°37' W 005°53'0 0.0
2017-Jun-21 09:36N 54°37' W 005°53'0 0.0
2017-Jun-21 09:24N 54°37' W 005°53'0 0.0
2017-Jun-21 08:48N 54°37' W 005°53'0 0.0
2017-Jun-21 08:27N 54°37' W 005°53'0 0.0
2017-Jun-21 07:57N 54°37' W 005°53'0 0.0
2017-Jun-21 07:30N 54°37' W 005°53'0 0.0
2017-Jun-21 06:51N 54°37' W 005°53'0 0.0
2017-Jun-21 06:30N 54°37' W 005°53'0 0.0
2017-Jun-21 06:00N 54°37' W 005°53'0 0.0
2017-Jun-21 05:24N 54°37' W 005°53'0 0.0
2017-Jun-21 04:57N 54°37' W 005°53'0 0.0
2017-Jun-21 04:27N 54°37' W 005°53'0 0.0
2017-Jun-21 04:00N 54°37' W 005°53'0 0.0
2017-Jun-21 03:27N 54°37' W 005°53'0 0.0
2017-Jun-21 02:57N 54°37' W 005°53'0 0.0
2017-Jun-21 02:30N 54°37' W 005°53'0 0.0
2017-Jun-21 01:57N 54°37' W 005°53'0 0.0
2017-Jun-21 01:30N 54°37' W 005°53'0 0.0
2017-Jun-21 01:00N 54°37' W 005°53'0 0.0
2017-Jun-21 00:30N 54°37' W 005°53'0 0.0
2017-Jun-21 00:00N 54°37' W 005°53'0 0.0
2017-Jun-20 23:30N 54°37' W 005°53'0 0.0
2017-Jun-20 22:57N 54°37' W 005°53'0 0.0
2017-Jun-20 22:30N 54°37' W 005°53'0 0.0
2017-Jun-20 22:00N 54°37' W 005°53'0 0.1
2017-Jun-20 21:24N 54°37' W 005°53'2 4.7
2017-Jun-20 20:59N 54°39' W 005°52'5 9.7
2017-Jun-20 20:30N 54°42' W 005°46'3 6.0
2017-Jun-20 20:00N 54°42' W 005°41'1 1.3
2017-Jun-20 19:30N 54°41' W 005°41'0 0.1
2017-Jun-20 19:00N 54°41' W 005°41'0 0.0
2017-Jun-20 18:30N 54°41' W 005°41'0 0.0
2017-Jun-20 18:00N 54°41' W 005°41'0 0.0
2017-Jun-20 17:30N 54°41' W 005°41'0 0.0
2017-Jun-20 17:00N 54°41' W 005°41'0 0.0
2017-Jun-20 16:27N 54°41' W 005°41'0 0.0
2017-Jun-20 16:00N 54°41' W 005°41'0 0.2
2017-Jun-20 15:31N 54°41' W 005°41'3 6.1
2017-Jun-20 15:00N 54°42' W 005°36'4 7.5
2017-Jun-20 14:30N 54°42' W 005°30'8 8.1
2017-Jun-20 13:30N 54°35' W 005°22'5 9.3
2017-Jun-20 13:00N 54°31' W 005°19'5 9.4
2017-Jun-20 12:30N 54°27' W 005°14'5 9.5
2017-Jun-20 12:00N 54°22' W 005°14'5 9.7
2017-Jun-20 11:30N 54°17' W 005°15'5 9.5
2017-Jun-20 10:59N 54°12' W 005°15'4 9.1
2017-Jun-20 10:30N 54°08' W 005°16'135 8.3
2017-Jun-19 18:08N 52°02' W 006°37'110.3
2017-Jun-19 18:00N 52°02' W 006°39'510.2
2017-Jun-19 17:31N 52°02' W 006°47'510.1
2017-Jun-19 17:01N 52°05' W 006°54'5 9.9
2017-Jun-19 16:30N 52°09' W 006°58'5 9.9
2017-Jun-19 16:01N 52°14' W 006°57'3 6.1
2017-Jun-19 15:28N 52°16' W 007°02'0 0.0
2017-Jun-19 14:58N 52°16' W 007°02'0 0.0
2017-Jun-19 14:28N 52°16' W 007°02'0 0.0
2017-Jun-19 13:28N 52°16' W 007°02'0 0.0
2017-Jun-19 12:58N 52°16' W 007°02'0 0.0
2017-Jun-19 12:28N 52°16' W 007°02'0 0.0
2017-Jun-19 11:58N 52°16' W 007°02'0 0.0
2017-Jun-19 11:22N 52°16' W 007°02'0 0.0
2017-Jun-19 10:58N 52°16' W 007°02'0 0.0
2017-Jun-19 10:28N 52°16' W 007°02'0 0.0
2017-Jun-19 09:58N 52°16' W 007°02'0 0.0
2017-Jun-19 09:28N 52°16' W 007°02'0 0.0
2017-Jun-19 08:58N 52°16' W 007°02'0 0.0
2017-Jun-19 08:25N 52°16' W 007°02'0 0.0
2017-Jun-19 07:58N 52°16' W 007°02'0 0.0
2017-Jun-19 07:28N 52°16' W 007°02'0 0.0
2017-Jun-19 06:58N 52°16' W 007°02'0 0.0
2017-Jun-19 06:25N 52°16' W 007°02'0 0.0
2017-Jun-19 05:58N 52°16' W 007°02'0 0.0
2017-Jun-19 05:28N 52°16' W 007°02'0 0.0
2017-Jun-19 04:58N 52°16' W 007°02'0 0.0
2017-Jun-19 04:25N 52°16' W 007°02'0 0.0
2017-Jun-19 03:58N 52°16' W 007°02'0 0.0
2017-Jun-19 03:28N 52°16' W 007°02'0 0.0
2017-Jun-19 02:58N 52°16' W 007°02'0 0.0
2017-Jun-19 02:28N 52°16' W 007°02'0 0.0
2017-Jun-19 01:58N 52°16' W 007°02'0 0.0
2017-Jun-19 01:28N 52°16' W 007°02'0 0.0
2017-Jun-19 00:58N 52°16' W 007°02'0 0.0
2017-Jun-19 00:28N 52°16' W 007°02'0 0.0
2017-Jun-18 23:58N 52°16' W 007°02'0 0.0
2017-Jun-18 23:22N 52°16' W 007°02'0 0.0
2017-Jun-18 22:58N 52°16' W 007°02'0 0.0
2017-Jun-18 22:28N 52°16' W 007°02'0 0.0
2017-Jun-18 21:58N 52°16' W 007°02'0 0.0
2017-Jun-18 21:28N 52°16' W 007°02'0 0.0
2017-Jun-18 20:58N 52°16' W 007°02'0 0.0
2017-Jun-18 20:28N 52°16' W 007°02'0 0.0
2017-Jun-18 19:58N 52°16' W 007°02'0 0.0
2017-Jun-18 19:28N 52°16' W 007°02'0 0.0
2017-Jun-18 18:43N 52°16' W 007°02'0 0.0
2017-Jun-18 18:28N 52°16' W 007°02'0 0.0
2017-Jun-18 17:55N 52°16' W 007°02'0 0.0
2017-Jun-18 17:22N 52°16' W 007°02'0 0.0
2017-Jun-18 16:58N 52°16' W 007°02'0 0.0
2017-Jun-18 16:28N 52°16' W 007°02'0 0.0
2017-Jun-18 15:55N 52°16' W 007°02'0 0.0
2017-Jun-18 15:28N 52°16' W 007°02'0 0.0
2017-Jun-18 14:58N 52°16' W 007°02'0 0.0
2017-Jun-18 13:46N 52°16' W 007°02'0 0.0
2017-Jun-18 13:28N 52°16' W 007°02'0 0.0
2017-Jun-18 12:52N 52°16' W 007°02'0 0.0
2017-Jun-18 12:28N 52°16' W 007°02'0 0.0
2017-Jun-18 11:58N 52°16' W 007°02'0 0.0
2017-Jun-18 11:28N 52°16' W 007°02'0 0.0
2017-Jun-18 10:58N 52°16' W 007°02'0 0.0
2017-Jun-18 10:28N 52°16' W 007°02'0 0.0
2017-Jun-18 09:58N 52°16' W 007°02'0 0.0
2017-Jun-18 09:28N 52°16' W 007°02'0 0.0
2017-Jun-18 08:49N 52°16' W 007°02'0 0.0
2017-Jun-18 08:28N 52°16' W 007°02'0 0.0
2017-Jun-18 07:52N 52°16' W 007°02'0 0.0
2017-Jun-18 07:22N 52°16' W 007°02'0 0.0
2017-Jun-18 06:55N 52°16' W 007°02'0 0.0
2017-Jun-18 06:16N 52°16' W 007°02'0 0.0
2017-Jun-18 05:58N 52°16' W 007°02'0 0.0
2017-Jun-18 05:28N 52°16' W 007°02'0 0.0
2017-Jun-18 04:58N 52°16' W 007°02'0 0.0
2017-Jun-18 04:22N 52°16' W 007°02'0 0.0
2017-Jun-18 03:58N 52°16' W 007°02'0 0.0
2017-Jun-18 03:25N 52°16' W 007°02'0 0.0
2017-Jun-18 02:58N 52°16' W 007°02'0 0.0
2017-Jun-18 02:28N 52°16' W 007°02'0 0.0
2017-Jun-18 01:58N 52°16' W 007°02'0 0.0
2017-Jun-18 01:28N 52°16' W 007°02'0 0.0
2017-Jun-18 00:58N 52°16' W 007°02'0 0.0
2017-Jun-18 00:28N 52°16' W 007°02'0 0.0
2017-Jun-17 23:46N 52°16' W 007°02'0 0.0
2017-Jun-17 23:28N 52°16' W 007°02'0 0.0
2017-Jun-17 22:58N 52°16' W 007°02'0 0.0
2017-Jun-17 22:28N 52°16' W 007°02'0 0.0
2017-Jun-17 21:52N 52°16' W 007°02'0 0.0
2017-Jun-17 21:28N 52°16' W 007°02'0 0.0
2017-Jun-17 20:58N 52°16' W 007°02'0 0.0
2017-Jun-17 20:28N 52°16' W 007°02'0 0.0
2017-Jun-17 19:58N 52°16' W 007°02'0 0.0
2017-Jun-17 19:28N 52°16' W 007°02'0 0.0
2017-Jun-17 18:58N 52°16' W 007°02'0 0.0
2017-Jun-17 18:28N 52°16' W 007°02'0 0.0
2017-Jun-17 17:58N 52°16' W 007°02'0 0.0
2017-Jun-17 17:28N 52°16' W 007°02'0 0.0
2017-Jun-17 16:58N 52°16' W 007°02'0 0.0
2017-Jun-17 16:28N 52°16' W 007°02'0 0.0
2017-Jun-17 15:49N 52°16' W 007°02'0 0.0
2017-Jun-17 15:25N 52°16' W 007°02'0 0.0
2017-Jun-17 14:58N 52°16' W 007°02'0 0.0
2017-Jun-17 14:25N 52°16' W 007°02'0 0.0
2017-Jun-17 13:22N 52°16' W 007°02'0 0.0
2017-Jun-17 12:58N 52°16' W 007°02'0 0.0
2017-Jun-17 12:28N 52°16' W 007°02'0 0.0
2017-Jun-17 11:58N 52°16' W 007°02'0 0.0
2017-Jun-17 11:22N 52°16' W 007°02'0 0.0
2017-Jun-17 10:58N 52°16' W 007°02'0 0.0
2017-Jun-17 10:28N 52°16' W 007°02'0 0.0
2017-Jun-17 09:57N 52°16' W 007°02'1 1.2
2017-Jun-17 09:30N 52°16' W 007°01'4 7.4
2017-Jun-17 08:59N 52°14' W 006°57'510.1
2017-Jun-17 08:30N 52°09' W 006°58'3 6.6
2017-Jun-17 08:00N 52°06' W 006°57'3 5.1
2017-Jun-17 07:30N 52°03' W 006°56'3 5.7
2017-Jun-17 07:00N 52°01' W 006°53'3 5.8
2017-Jun-17 06:31N 51°58' W 006°51'3 6.0
2017-Jun-17 06:00N 51°55' W 006°50'3 6.1
2017-Jun-17 05:29N 51°52' W 006°48'3 5.9
2017-Jun-17 04:58N 51°50' W 006°46'3 5.8
2017-Jun-17 04:30N 51°47' W 006°44'3 5.7
2017-Jun-17 03:56N 51°44' W 006°42'2 5.7
2017-Jun-17 03:30N 51°42' W 006°41'3 5.7
2017-Jun-17 03:00N 51°39' W 006°39'4 5.6
2017-Jun-17 02:19N 51°36' W 006°37'4 5.1
2017-Jun-17 01:35N 51°32' W 006°35'0 5.1
2017-Jun-17 01:30N 51°32' W 006°34'3 5.1
2017-Jun-17 01:00N 51°29' W 006°33'3 5.3
2017-Jun-17 00:31N 51°27' W 006°32'3 5.2
2017-Jun-17 00:00N 51°24' W 006°30'3 5.3
2017-Jun-16 23:30N 51°22' W 006°29'3 5.4
2017-Jun-16 22:58N 51°19' W 006°28'2 5.3
2017-Jun-16 22:30N 51°17' W 006°26'3 5.2
2017-Jun-16 22:00N 51°14' W 006°25'3 5.2
2017-Jun-16 21:29N 51°12' W 006°23'3 5.3
2017-Jun-16 21:00N 51°09' W 006°22'2 4.9
2017-Jun-16 20:30N 51°07' W 006°21'3 5.2
2017-Jun-16 19:56N 51°04' W 006°19'3 6.5
2017-Jun-16 19:30N 51°02' W 006°18'3 6.3
2017-Jun-16 18:58N 50°59' W 006°15'3 5.5
2017-Jun-16 18:30N 50°56' W 006°14'3 5.6
2017-Jun-16 17:54N 50°53' W 006°12'3 6.5
2017-Jun-16 17:24N 50°50' W 006°11'3 6.5
2017-Jun-16 17:00N 50°48' W 006°09'8 6.5
2017-Jun-16 15:49N 50°40' W 006°05'7 6.4
2017-Jun-16 14:42N 50°34' W 006°02'5 6.4
2017-Jun-16 13:54N 50°29' W 005°58'2 6.4
2017-Jun-16 13:30N 50°26' W 005°57'3 6.3
2017-Jun-16 13:00N 50°23' W 005°55'4 7.5
2017-Jun-16 12:30N 50°20' W 005°54'4 8.2
2017-Jun-16 12:00N 50°16' W 005°53'4 8.1
2017-Jun-16 11:30N 50°12' W 005°53'4 8.0
2017-Jun-16 11:01N 50°08' W 005°53'4 8.2
2017-Jun-16 10:30N 50°04' W 005°53'4 8.0
2017-Jun-16 10:00N 49°60' W 005°51'10 7.8
2017-Jun-16 08:44N 49°58' W 005°36'20 7.6
2017-Jun-16 06:11N 49°54' W 005°06'1 8.2
2017-Jun-16 06:00N 49°54' W 005°04'5 8.5
2017-Jun-16 05:27N 49°54' W 004°57'4 8.7
2017-Jun-16 04:59N 49°54' W 004°50'5 8.7
2017-Jun-16 04:27N 49°54' W 004°43'4 8.8
2017-Jun-16 04:01N 49°54' W 004°37'5 9.0
2017-Jun-16 03:30N 49°55' W 004°30'23 8.8
2017-Jun-16 00:50N 49°57' W 003°54'6 7.9
2017-Jun-16 00:05N 49°58' W 003°45'1 7.6
2017-Jun-16 00:00N 49°58' W 003°44'4 7.4
2017-Jun-15 23:27N 49°58' W 003°38'3 7.3
2017-Jun-15 23:01N 49°58' W 003°33'4 7.1
2017-Jun-15 22:31N 49°58' W 003°27'4 7.1
2017-Jun-15 22:00N 49°59' W 003°22'4 7.2
2017-Jun-15 21:31N 49°59' W 003°16'4 7.4
2017-Jun-15 21:00N 49°59' W 003°10'4 7.5
2017-Jun-15 20:30N 49°60' W 003°04'4 7.9
2017-Jun-15 20:00N 50°01' W 002°58'4 8.3
2017-Jun-15 19:30N 50°02' W 002°52'5 8.8
2017-Jun-15 18:58N 50°03' W 002°45'4 9.3
2017-Jun-15 18:31N 50°04' W 002°39'2510.2
2017-Jun-15 16:01N 50°11' W 002°01'3 9.9
2017-Jun-15 15:42N 50°12' W 001°56'4 9.6
2017-Jun-15 15:16N 50°13' W 001°50'2 9.2
2017-Jun-15 15:00N 50°14' W 001°46'4 8.7
2017-Jun-15 14:30N 50°15' W 001°40'8 7.9
2017-Jun-15 13:30N 50°17' W 001°28'19 6.4
2017-Jun-15 10:27N 50°22' W 000°58'3 6.9
2017-Jun-15 10:00N 50°23' W 000°54'4 7.8
2017-Jun-15 09:29N 50°24' W 000°48'4 8.7
2017-Jun-15 08:59N 50°26' W 000°41'5 9.4
2017-Jun-15 08:25N 50°27' W 000°33'4 9.9
2017-Jun-15 07:58N 50°28' W 000°26'510.3
2017-Jun-15 07:30N 50°30' W 000°19'510.6
2017-Jun-15 07:00N 50°31' W 000°11'510.7
2017-Jun-15 06:30N 50°32' W 000°03'510.6
2017-Jun-15 06:00N 50°34' E 000°05'510.5
2017-Jun-15 05:30N 50°35' E 000°13'910.2
2017-Jun-15 04:35N 50°37' E 000°27'1 9.9
2017-Jun-15 04:30N 50°38' E 000°28'5 9.5
2017-Jun-15 04:00N 50°40' E 000°35'22 8.5
2017-Jun-15 01:26N 50°52' E 001°04'4 8.3
2017-Jun-15 01:00N 50°54' E 001°08'4 8.7
2017-Jun-15 00:30N 50°57' E 001°13'5 9.3
2017-Jun-15 00:00N 51°00' E 001°19'510.3
2017-Jun-14 23:30N 51°03' E 001°25'611.6
2017-Jun-14 23:00N 51°07' E 001°32'612.2
2017-Jun-14 22:30N 51°11' E 001°40'611.5
2017-Jun-14 22:00N 51°15' E 001°46'611.2
2017-Jun-14 21:30N 51°20' E 001°51'510.6
2017-Jun-14 21:00N 51°24' E 001°55'510.0
2017-Jun-14 20:30N 51°28' E 002°00'5 9.5
2017-Jun-14 20:00N 51°32' E 002°05'5 9.1
2017-Jun-14 19:30N 51°35' E 002°10'4 8.8
2017-Jun-14 19:00N 51°39' E 002°14'5 8.7
2017-Jun-14 18:29N 51°42' E 002°19'4 8.2
2017-Jun-14 18:00N 51°45' E 002°23'4 7.9
2017-Jun-14 17:30N 51°48' E 002°28'4 7.9
2017-Jun-14 16:57N 51°51' E 002°32'36 9.0
2017-Jun-14 12:56N 52°04' E 003°28'510.8
2017-Jun-14 12:30N 52°04' E 003°35'510.7
2017-Jun-14 12:00N 52°04' E 003°44'510.8
2017-Jun-14 11:30N 52°03' E 003°52'510.1
2017-Jun-14 11:00N 52°01' E 003°60'611.9
2017-Jun-14 10:30N 51°58' E 004°09'612.0
2017-Jun-14 10:01N 51°54' E 004°16'611.1
2017-Jun-14 09:31N 51°54' E 004°25'2 4.8
2017-Jun-14 09:00N 51°54' E 004°29'0 0.0
2017-Jun-14 08:30N 51°54' E 004°29'0 0.0
2017-Jun-14 08:00N 51°54' E 004°29'0 0.0
2017-Jun-14 07:30N 51°54' E 004°29'0 0.0
2017-Jun-14 07:00N 51°54' E 004°29'0 0.0
2017-Jun-14 06:30N 51°54' E 004°29'0 0.0
2017-Jun-14 06:00N 51°54' E 004°29'0 0.0
2017-Jun-14 05:30N 51°54' E 004°29'0 0.0
2017-Jun-14 05:00N 51°54' E 004°29'0 0.0
2017-Jun-14 04:27N 51°54' E 004°29'0 0.0
2017-Jun-14 04:00N 51°54' E 004°29'0 0.0
2017-Jun-14 03:30N 51°54' E 004°29'0 0.0
2017-Jun-14 03:00N 51°54' E 004°29'0 0.0
2017-Jun-14 02:27N 51°54' E 004°29'0 0.0
2017-Jun-14 02:00N 51°54' E 004°29'0 0.0
2017-Jun-14 01:30N 51°54' E 004°29'0 0.0
2017-Jun-14 01:00N 51°54' E 004°29'0 0.0
2017-Jun-14 00:30N 51°54' E 004°29'0 0.0
2017-Jun-14 00:00N 51°54' E 004°29'0 0.0
2017-Jun-13 23:30N 51°54' E 004°29'0 0.0
2017-Jun-13 23:00N 51°54' E 004°29'0 0.0
2017-Jun-13 22:30N 51°54' E 004°29'0 0.0
2017-Jun-13 22:00N 51°54' E 004°29'0 0.0
2017-Jun-13 21:30N 51°54' E 004°29'0 0.0
2017-Jun-13 21:00N 51°54' E 004°29'0 0.0
2017-Jun-13 20:27N 51°54' E 004°29'  
Track history (hours):
 
Tides and Currents Weather Stations Pressure Air Temp Water Temp Dewpoint Dewpoint Depression Visibility Wind Speed Wind Dir Waves Ship Positions

Nestor

Last reported at 2017-Jun-23 20:21 UTC. Time now 2017-Jun-28 00:20 UTC.
Position N 50°58' W 006°20'.

Length 88 m; draft 5.9 m.

Type: Cargo ship. MMSI: 305620000.

Date/timePositionNaut miles runAvg speedWind from/ knotsBaromVisibWave heightAir tempDewpointWater temp
2017-Jun-23 20:21N 50°58' W 006°20'3 6.6
2017-Jun-23 19:55N 51°01' W 006°18'3 6.3
2017-Jun-23 19:30N 51°04' W 006°17'7 6.0
2017-Jun-23 18:22N 51°10' W 006°14'3 5.7
2017-Jun-23 17:47N 51°13' W 006°13'182 7.7
2017-Jun-22 18:02N 54°12' W 005°18'0 9.6
2017-Jun-22 18:00N 54°13' W 005°18'5 9.6
2017-Jun-22 17:31N 54°18' W 005°17'5 9.5
2017-Jun-22 17:00N 54°22' W 005°17'5 9.8
2017-Jun-22 16:30N 54°27' W 005°17'5 9.8
2017-Jun-22 16:00N 54°32' W 005°20'5 9.8
2017-Jun-22 15:30N 54°36' W 005°23'5 9.4
2017-Jun-22 15:00N 54°40' W 005°27'5 9.1
2017-Jun-22 14:30N 54°42' W 005°34'10 9.5
2017-Jun-22 13:30N 54°40' W 005°50'4 6.4
2017-Jun-22 12:57N 54°37' W 005°53'0 0.0
2017-Jun-22 12:21N 54°37' W 005°53'0 0.0
2017-Jun-22 12:00N 54°37' W 005°53'0 0.0
2017-Jun-22 11:30N 54°37' W 005°53'0 0.0
2017-Jun-22 10:57N 54°37' W 005°53'0 0.0
2017-Jun-22 10:30N 54°37' W 005°53'0 0.0
2017-Jun-22 09:54N 54°37' W 005°53'0 0.0
2017-Jun-22 09:24N 54°37' W 005°53'0 0.0
2017-Jun-22 08:51N 54°37' W 005°53'0 0.0
2017-Jun-22 08:24N 54°37' W 005°53'0 0.0
2017-Jun-22 08:00N 54°37' W 005°53'0 0.0
2017-Jun-22 07:24N 54°37' W 005°53'0 0.0
2017-Jun-22 07:00N 54°37' W 005°53'0 0.0
2017-Jun-22 06:30N 54°37' W 005°53'0 0.0
2017-Jun-22 06:00N 54°37' W 005°53'0 0.0
2017-Jun-22 05:27N 54°37' W 005°53'0 0.0
2017-Jun-22 05:00N 54°37' W 005°53'0 0.0
2017-Jun-22 04:30N 54°37' W 005°53'0 0.0
2017-Jun-22 04:00N 54°37' W 005°53'0 0.0
2017-Jun-22 03:30N 54°37' W 005°53'0 0.0
2017-Jun-22 03:00N 54°37' W 005°53'0 0.0
2017-Jun-22 02:30N 54°37' W 005°53'0 0.0
2017-Jun-22 02:00N 54°37' W 005°53'0 0.0
2017-Jun-22 01:27N 54°37' W 005°53'0 0.0
2017-Jun-22 00:57N 54°37' W 005°53'0 0.0
2017-Jun-22 00:30N 54°37' W 005°53'0 0.0
2017-Jun-21 23:57N 54°37' W 005°53'0 0.0
2017-Jun-21 23:30N 54°37' W 005°53'0 0.0
2017-Jun-21 23:00N 54°37' W 005°53'0 0.0
2017-Jun-21 22:30N 54°37' W 005°53'0 0.0
2017-Jun-21 21:57N 54°37' W 005°53'0 0.0
2017-Jun-21 21:30N 54°37' W 005°53'0 0.0
2017-Jun-21 21:00N 54°37' W 005°53'0 0.0
2017-Jun-21 20:30N 54°37' W 005°53'0 0.0
2017-Jun-21 19:51N 54°37' W 005°53'0 0.0
2017-Jun-21 19:30N 54°37' W 005°53'0 0.0
2017-Jun-21 19:00N 54°37' W 005°53'0 0.0
2017-Jun-21 18:30N 54°37' W 005°53'0 0.0
2017-Jun-21 17:57N 54°37' W 005°53'0 0.0
2017-Jun-21 17:30N 54°37' W 005°53'0 0.0
2017-Jun-21 17:00N 54°37' W 005°53'0 0.0
2017-Jun-21 16:27N 54°37' W 005°53'0 0.0
2017-Jun-21 15:57N 54°37' W 005°53'0 0.0
2017-Jun-21 15:24N 54°37' W 005°53'0 0.0
2017-Jun-21 15:00N 54°37' W 005°53'0 0.0
2017-Jun-21 14:27N 54°37' W 005°53'0 0.0
2017-Jun-21 13:30N 54°37' W 005°53'0 0.0
2017-Jun-21 13:00N 54°37' W 005°53'0 0.0
2017-Jun-21 12:30N 54°37' W 005°53'0 0.0
2017-Jun-21 11:54N 54°37' W 005°53'0 0.0
2017-Jun-21 11:30N 54°37' W 005°53'0 0.0
2017-Jun-21 10:57N 54°37' W 005°53'0 0.0
2017-Jun-21 10:27N 54°37' W 005°53'0 0.0
2017-Jun-21 09:36N 54°37' W 005°53'0 0.0
2017-Jun-21 09:24N 54°37' W 005°53'0 0.0
2017-Jun-21 08:48N 54°37' W 005°53'0 0.0
2017-Jun-21 08:27N 54°37' W 005°53'0 0.0
2017-Jun-21 07:57N 54°37' W 005°53'0 0.0
2017-Jun-21 07:30N 54°37' W 005°53'0 0.0
2017-Jun-21 06:51N 54°37' W 005°53'0 0.0
2017-Jun-21 06:30N 54°37' W 005°53'0 0.0
2017-Jun-21 06:00N 54°37' W 005°53'0 0.0
2017-Jun-21 05:24N 54°37' W 005°53'0 0.0
2017-Jun-21 04:57N 54°37' W 005°53'0 0.0
2017-Jun-21 04:27N 54°37' W 005°53'0 0.0
2017-Jun-21 04:00N 54°37' W 005°53'0 0.0
2017-Jun-21 03:27N 54°37' W 005°53'0 0.0
2017-Jun-21 02:57N 54°37' W 005°53'0 0.0
2017-Jun-21 02:30N 54°37' W 005°53'0 0.0
2017-Jun-21 01:57N 54°37' W 005°53'0 0.0
2017-Jun-21 01:30N 54°37' W 005°53'0 0.0
2017-Jun-21 01:00N 54°37' W 005°53'0 0.0
2017-Jun-21 00:30N 54°37' W 005°53'0 0.0
2017-Jun-21 00:00N 54°37' W 005°53'0 0.0
2017-Jun-20 23:30N 54°37' W 005°53'0 0.0
2017-Jun-20 22:57N 54°37' W 005°53'0 0.0
2017-Jun-20 22:30N 54°37' W 005°53'0 0.0
2017-Jun-20 22:00N 54°37' W 005°53'0 0.1
2017-Jun-20 21:24N 54°37' W 005°53'2 4.7
2017-Jun-20 20:59N 54°39' W 005°52'5 9.7
2017-Jun-20 20:30N 54°42' W 005°46'3 6.0
2017-Jun-20 20:00N 54°42' W 005°41'1 1.3
2017-Jun-20 19:30N 54°41' W 005°41'0 0.1
2017-Jun-20 19:00N 54°41' W 005°41'0 0.0
2017-Jun-20 18:30N 54°41' W 005°41'0 0.0
2017-Jun-20 18:00N 54°41' W 005°41'0 0.0
2017-Jun-20 17:30N 54°41' W 005°41'0 0.0
2017-Jun-20 17:00N 54°41' W 005°41'0 0.0
2017-Jun-20 16:27N 54°41' W 005°41'0 0.0
2017-Jun-20 16:00N 54°41' W 005°41'0 0.2
2017-Jun-20 15:31N 54°41' W 005°41'3 6.1
2017-Jun-20 15:00N 54°42' W 005°36'4 7.5
2017-Jun-20 14:30N 54°42' W 005°30'8 8.1
2017-Jun-20 13:30N 54°35' W 005°22'5 9.3
2017-Jun-20 13:00N 54°31' W 005°19'5 9.4
2017-Jun-20 12:30N 54°27' W 005°14'5 9.5
2017-Jun-20 12:00N 54°22' W 005°14'5 9.7
2017-Jun-20 11:30N 54°17' W 005°15'5 9.5
2017-Jun-20 10:59N 54°12' W 005°15'4 9.1
2017-Jun-20 10:30N 54°08' W 005°16'135 8.3
2017-Jun-19 18:08N 52°02' W 006°37'110.3
2017-Jun-19 18:00N 52°02' W 006°39'510.2
2017-Jun-19 17:31N 52°02' W 006°47'510.1
2017-Jun-19 17:01N 52°05' W 006°54'5 9.9
2017-Jun-19 16:30N 52°09' W 006°58'5 9.9
2017-Jun-19 16:01N 52°14' W 006°57'3 6.1
2017-Jun-19 15:28N 52°16' W 007°02'0 0.0
2017-Jun-19 14:58N 52°16' W 007°02'0 0.0
2017-Jun-19 14:28N 52°16' W 007°02'0 0.0
2017-Jun-19 13:28N 52°16' W 007°02'0 0.0
2017-Jun-19 12:58N 52°16' W 007°02'0 0.0
2017-Jun-19 12:28N 52°16' W 007°02'0 0.0
2017-Jun-19 11:58N 52°16' W 007°02'0 0.0
2017-Jun-19 11:22N 52°16' W 007°02'0 0.0
2017-Jun-19 10:58N 52°16' W 007°02'0 0.0
2017-Jun-19 10:28N 52°16' W 007°02'0 0.0
2017-Jun-19 09:58N 52°16' W 007°02'0 0.0
2017-Jun-19 09:28N 52°16' W 007°02'0 0.0
2017-Jun-19 08:58N 52°16' W 007°02'0 0.0
2017-Jun-19 08:25N 52°16' W 007°02'0 0.0
2017-Jun-19 07:58N 52°16' W 007°02'0 0.0
2017-Jun-19 07:28N 52°16' W 007°02'0 0.0
2017-Jun-19 06:58N 52°16' W 007°02'0 0.0
2017-Jun-19 06:25N 52°16' W 007°02'0 0.0
2017-Jun-19 05:58N 52°16' W 007°02'0 0.0
2017-Jun-19 05:28N 52°16' W 007°02'0 0.0
2017-Jun-19 04:58N 52°16' W 007°02'0 0.0
2017-Jun-19 04:25N 52°16' W 007°02'0 0.0
2017-Jun-19 03:58N 52°16' W 007°02'0 0.0
2017-Jun-19 03:28N 52°16' W 007°02'0 0.0
2017-Jun-19 02:58N 52°16' W 007°02'0 0.0
2017-Jun-19 02:28N 52°16' W 007°02'0 0.0
2017-Jun-19 01:58N 52°16' W 007°02'0 0.0
2017-Jun-19 01:28N 52°16' W 007°02'0 0.0
2017-Jun-19 00:58N 52°16' W 007°02'0 0.0
2017-Jun-19 00:28N 52°16' W 007°02'0 0.0
2017-Jun-18 23:58N 52°16' W 007°02'0 0.0
2017-Jun-18 23:22N 52°16' W 007°02'0 0.0
2017-Jun-18 22:58N 52°16' W 007°02'0 0.0
2017-Jun-18 22:28N 52°16' W 007°02'0 0.0
2017-Jun-18 21:58N 52°16' W 007°02'0 0.0
2017-Jun-18 21:28N 52°16' W 007°02'0 0.0
2017-Jun-18 20:58N 52°16' W 007°02'0 0.0
2017-Jun-18 20:28N 52°16' W 007°02'0 0.0
2017-Jun-18 19:58N 52°16' W 007°02'0 0.0
2017-Jun-18 19:28N 52°16' W 007°02'0 0.0
2017-Jun-18 18:43N 52°16' W 007°02'0 0.0
2017-Jun-18 18:28N 52°16' W 007°02'0 0.0
2017-Jun-18 17:55N 52°16' W 007°02'0 0.0
2017-Jun-18 17:22N 52°16' W 007°02'0 0.0
2017-Jun-18 16:58N 52°16' W 007°02'0 0.0
2017-Jun-18 16:28N 52°16' W 007°02'0 0.0
2017-Jun-18 15:55N 52°16' W 007°02'0 0.0
2017-Jun-18 15:28N 52°16' W 007°02'0 0.0
2017-Jun-18 14:58N 52°16' W 007°02'0 0.0
2017-Jun-18 13:46N 52°16' W 007°02'0 0.0
2017-Jun-18 13:28N 52°16' W 007°02'0 0.0
2017-Jun-18 12:52N 52°16' W 007°02'0 0.0
2017-Jun-18 12:28N 52°16' W 007°02'0 0.0
2017-Jun-18 11:58N 52°16' W 007°02'0 0.0
2017-Jun-18 11:28N 52°16' W 007°02'0 0.0
2017-Jun-18 10:58N 52°16' W 007°02'0 0.0
2017-Jun-18 10:28N 52°16' W 007°02'0 0.0
2017-Jun-18 09:58N 52°16' W 007°02'0 0.0
2017-Jun-18 09:28N 52°16' W 007°02'0 0.0
2017-Jun-18 08:49N 52°16' W 007°02'0 0.0
2017-Jun-18 08:28N 52°16' W 007°02'0 0.0
2017-Jun-18 07:52N 52°16' W 007°02'0 0.0
2017-Jun-18 07:22N 52°16' W 007°02'0 0.0
2017-Jun-18 06:55N 52°16' W 007°02'0 0.0
2017-Jun-18 06:16N 52°16' W 007°02'0 0.0
2017-Jun-18 05:58N 52°16' W 007°02'0 0.0
2017-Jun-18 05:28N 52°16' W 007°02'0 0.0
2017-Jun-18 04:58N 52°16' W 007°02'0 0.0
2017-Jun-18 04:22N 52°16' W 007°02'0 0.0
2017-Jun-18 03:58N 52°16' W 007°02'0 0.0
2017-Jun-18 03:25N 52°16' W 007°02'0 0.0
2017-Jun-18 02:58N 52°16' W 007°02'0 0.0
2017-Jun-18 02:28N 52°16' W 007°02'0 0.0
2017-Jun-18 01:58N 52°16' W 007°02'0 0.0
2017-Jun-18 01:28N 52°16' W 007°02'0 0.0
2017-Jun-18 00:58N 52°16' W 007°02'0 0.0
2017-Jun-18 00:28N 52°16' W 007°02'0 0.0
2017-Jun-17 23:46N 52°16' W 007°02'0 0.0
2017-Jun-17 23:28N 52°16' W 007°02'0 0.0
2017-Jun-17 22:58N 52°16' W 007°02'0 0.0
2017-Jun-17 22:28N 52°16' W 007°02'0 0.0
2017-Jun-17 21:52N 52°16' W 007°02'0 0.0
2017-Jun-17 21:28N 52°16' W 007°02'0 0.0
2017-Jun-17 20:58N 52°16' W 007°02'0 0.0
2017-Jun-17 20:28N 52°16' W 007°02'0 0.0
2017-Jun-17 19:58N 52°16' W 007°02'0 0.0
2017-Jun-17 19:28N 52°16' W 007°02'0 0.0
2017-Jun-17 18:58N 52°16' W 007°02'0 0.0
2017-Jun-17 18:28N 52°16' W 007°02'0 0.0
2017-Jun-17 17:58N 52°16' W 007°02'0 0.0
2017-Jun-17 17:28N 52°16' W 007°02'0 0.0
2017-Jun-17 16:58N 52°16' W 007°02'0 0.0
2017-Jun-17 16:28N 52°16' W 007°02'0 0.0
2017-Jun-17 15:49N 52°16' W 007°02'0 0.0
2017-Jun-17 15:25N 52°16' W 007°02'0 0.0
2017-Jun-17 14:58N 52°16' W 007°02'0 0.0
2017-Jun-17 14:25N 52°16' W 007°02'0 0.0
2017-Jun-17 13:22N 52°16' W 007°02'0 0.0
2017-Jun-17 12:58N 52°16' W 007°02'0 0.0
2017-Jun-17 12:28N 52°16' W 007°02'0 0.0
2017-Jun-17 11:58N 52°16' W 007°02'0 0.0
2017-Jun-17 11:22N 52°16' W 007°02'0 0.0
2017-Jun-17 10:58N 52°16' W 007°02'0 0.0
2017-Jun-17 10:28N 52°16' W 007°02'0 0.0
2017-Jun-17 09:57N 52°16' W 007°02'1 1.2
2017-Jun-17 09:30N 52°16' W 007°01'4 7.4
2017-Jun-17 08:59N 52°14' W 006°57'510.1
2017-Jun-17 08:30N 52°09' W 006°58'3 6.6
2017-Jun-17 08:00N 52°06' W 006°57'3 5.1
2017-Jun-17 07:30N 52°03' W 006°56'3 5.7
2017-Jun-17 07:00N 52°01' W 006°53'3 5.8
2017-Jun-17 06:31N 51°58' W 006°51'3 6.0
2017-Jun-17 06:00N 51°55' W 006°50'3 6.1
2017-Jun-17 05:29N 51°52' W 006°48'3 5.9
2017-Jun-17 04:58N 51°50' W 006°46'3 5.8
2017-Jun-17 04:30N 51°47' W 006°44'3 5.7
2017-Jun-17 03:56N 51°44' W 006°42'2 5.7
2017-Jun-17 03:30N 51°42' W 006°41'3 5.7
2017-Jun-17 03:00N 51°39' W 006°39'4 5.6
2017-Jun-17 02:19N 51°36' W 006°37'4 5.1
2017-Jun-17 01:35N 51°32' W 006°35'0 5.1
2017-Jun-17 01:30N 51°32' W 006°34'3 5.1
2017-Jun-17 01:00N 51°29' W 006°33'3 5.3
2017-Jun-17 00:31N 51°27' W 006°32'3 5.2
2017-Jun-17 00:00N 51°24' W 006°30'3 5.3
2017-Jun-16 23:30N 51°22' W 006°29'3 5.4
2017-Jun-16 22:58N 51°19' W 006°28'2 5.3
2017-Jun-16 22:30N 51°17' W 006°26'3 5.2
2017-Jun-16 22:00N 51°14' W 006°25'3 5.2
2017-Jun-16 21:29N 51°12' W 006°23'3 5.3
2017-Jun-16 21:00N 51°09' W 006°22'2 4.9
2017-Jun-16 20:30N 51°07' W 006°21'3 5.2
2017-Jun-16 19:56N 51°04' W 006°19'3 6.5
2017-Jun-16 19:30N 51°02' W 006°18'3 6.3
2017-Jun-16 18:58N 50°59' W 006°15'3 5.5
2017-Jun-16 18:30N 50°56' W 006°14'3 5.6
2017-Jun-16 17:54N 50°53' W 006°12'3 6.5
2017-Jun-16 17:24N 50°50' W 006°11'3 6.5
2017-Jun-16 17:00N 50°48' W 006°09'8 6.5
2017-Jun-16 15:49N 50°40' W 006°05'7 6.4
2017-Jun-16 14:42N 50°34' W 006°02'5 6.4
2017-Jun-16 13:54N 50°29' W 005°58'2 6.4
2017-Jun-16 13:30N 50°26' W 005°57'3 6.3
2017-Jun-16 13:00N 50°23' W 005°55'4 7.5
2017-Jun-16 12:30N 50°20' W 005°54'4 8.2
2017-Jun-16 12:00N 50°16' W 005°53'4 8.1
2017-Jun-16 11:30N 50°12' W 005°53'4 8.0
2017-Jun-16 11:01N 50°08' W 005°53'4 8.2
2017-Jun-16 10:30N 50°04' W 005°53'4 8.0
2017-Jun-16 10:00N 49°60' W 005°51'10 7.8
2017-Jun-16 08:44N 49°58' W 005°36'20 7.6
2017-Jun-16 06:11N 49°54' W 005°06'1 8.2
2017-Jun-16 06:00N 49°54' W 005°04'5 8.5
2017-Jun-16 05:27N 49°54' W 004°57'4 8.7
2017-Jun-16 04:59N 49°54' W 004°50'5 8.7
2017-Jun-16 04:27N 49°54' W 004°43'4 8.8
2017-Jun-16 04:01N 49°54' W 004°37'5 9.0
2017-Jun-16 03:30N 49°55' W 004°30'23 8.8
2017-Jun-16 00:50N 49°57' W 003°54'6 7.9
2017-Jun-16 00:05N 49°58' W 003°45'1 7.6
2017-Jun-16 00:00N 49°58' W 003°44'4 7.4
2017-Jun-15 23:27N 49°58' W 003°38'3 7.3
2017-Jun-15 23:01N 49°58' W 003°33'4 7.1
2017-Jun-15 22:31N 49°58' W 003°27'4 7.1
2017-Jun-15 22:00N 49°59' W 003°22'4 7.2
2017-Jun-15 21:31N 49°59' W 003°16'4 7.4
2017-Jun-15 21:00N 49°59' W 003°10'4 7.5
2017-Jun-15 20:30N 49°60' W 003°04'4 7.9
2017-Jun-15 20:00N 50°01' W 002°58'4 8.3
2017-Jun-15 19:30N 50°02' W 002°52'5 8.8
2017-Jun-15 18:58N 50°03' W 002°45'4 9.3
2017-Jun-15 18:31N 50°04' W 002°39'2510.2
2017-Jun-15 16:01N 50°11' W 002°01'3 9.9
2017-Jun-15 15:42N 50°12' W 001°56'4 9.6
2017-Jun-15 15:16N 50°13' W 001°50'2 9.2
2017-Jun-15 15:00N 50°14' W 001°46'4 8.7
2017-Jun-15 14:30N 50°15' W 001°40'8 7.9
2017-Jun-15 13:30N 50°17' W 001°28'19 6.4
2017-Jun-15 10:27N 50°22' W 000°58'3 6.9
2017-Jun-15 10:00N 50°23' W 000°54'4 7.8
2017-Jun-15 09:29N 50°24' W 000°48'4 8.7
2017-Jun-15 08:59N 50°26' W 000°41'5 9.4
2017-Jun-15 08:25N 50°27' W 000°33'4 9.9
2017-Jun-15 07:58N 50°28' W 000°26'510.3
2017-Jun-15 07:30N 50°30' W 000°19'510.6
2017-Jun-15 07:00N 50°31' W 000°11'510.7
2017-Jun-15 06:30N 50°32' W 000°03'510.6
2017-Jun-15 06:00N 50°34' E 000°05'510.5
2017-Jun-15 05:30N 50°35' E 000°13'910.2
2017-Jun-15 04:35N 50°37' E 000°27'1 9.9
2017-Jun-15 04:30N 50°38' E 000°28'5 9.5
2017-Jun-15 04:00N 50°40' E 000°35'22 8.5
2017-Jun-15 01:26N 50°52' E 001°04'4 8.3
2017-Jun-15 01:00N 50°54' E 001°08'4 8.7
2017-Jun-15 00:30N 50°57' E 001°13'5 9.3
2017-Jun-15 00:00N 51°00' E 001°19'510.3
2017-Jun-14 23:30N 51°03' E 001°25'611.6
2017-Jun-14 23:00N 51°07' E 001°32'612.2
2017-Jun-14 22:30N 51°11' E 001°40'611.5
2017-Jun-14 22:00N 51°15' E 001°46'611.2
2017-Jun-14 21:30N 51°20' E 001°51'510.6
2017-Jun-14 21:00N 51°24' E 001°55'510.0
2017-Jun-14 20:30N 51°28' E 002°00'5 9.5
2017-Jun-14 20:00N 51°32' E 002°05'5 9.1
2017-Jun-14 19:30N 51°35' E 002°10'4 8.8
2017-Jun-14 19:00N 51°39' E 002°14'5 8.7
2017-Jun-14 18:29N 51°42' E 002°19'4 8.2
2017-Jun-14 18:00N 51°45' E 002°23'4 7.9
2017-Jun-14 17:30N 51°48' E 002°28'4 7.9
2017-Jun-14 16:57N 51°51' E 002°32'36 9.0
2017-Jun-14 12:56N 52°04' E 003°28'510.8
2017-Jun-14 12:30N 52°04' E 003°35'510.7
2017-Jun-14 12:00N 52°04' E 003°44'510.8
2017-Jun-14 11:30N 52°03' E 003°52'510.1
2017-Jun-14 11:00N 52°01' E 003°60'611.9
2017-Jun-14 10:30N 51°58' E 004°09'612.0
2017-Jun-14 10:01N 51°54' E 004°16'611.1
2017-Jun-14 09:31N 51°54' E 004°25'2 4.8
2017-Jun-14 09:00N 51°54' E 004°29'0 0.0
2017-Jun-14 08:30N 51°54' E 004°29'0 0.0
2017-Jun-14 08:00N 51°54' E 004°29'0 0.0
2017-Jun-14 07:30N 51°54' E 004°29'0 0.0
2017-Jun-14 07:00N 51°54' E 004°29'0 0.0
2017-Jun-14 06:30N 51°54' E 004°29'0 0.0
2017-Jun-14 06:00N 51°54' E 004°29'0 0.0
2017-Jun-14 05:30N 51°54' E 004°29'0 0.0
2017-Jun-14 05:00N 51°54' E 004°29'0 0.0
2017-Jun-14 04:27N 51°54' E 004°29'0 0.0
2017-Jun-14 04:00N 51°54' E 004°29'0 0.0
2017-Jun-14 03:30N 51°54' E 004°29'0 0.0
2017-Jun-14 03:00N 51°54' E 004°29'0 0.0
2017-Jun-14 02:27N 51°54' E 004°29'0 0.0
2017-Jun-14 02:00N 51°54' E 004°29'0 0.0
2017-Jun-14 01:30N 51°54' E 004°29'0 0.0
2017-Jun-14 01:00N 51°54' E 004°29'0 0.0
2017-Jun-14 00:30N 51°54' E 004°29'0 0.0
2017-Jun-14 00:00N 51°54' E 004°29'0 0.0
2017-Jun-13 23:30N 51°54' E 004°29'0 0.0
2017-Jun-13 23:00N 51°54' E 004°29'0 0.0
2017-Jun-13 22:30N 51°54' E 004°29'0 0.0
2017-Jun-13 22:00N 51°54' E 004°29'0 0.0
2017-Jun-13 21:30N 51°54' E 004°29'0 0.0
2017-Jun-13 21:00N 51°54' E 004°29'0 0.0
2017-Jun-13 20:27N 51°54' E 004°29'  

Dump ship's entire track history